createdAt,value
2023-05-11T00:01:34.905Z,7.37
2023-05-11T00:05:52.226Z,7.26
2023-05-11T00:10:10.464Z,7.57
2023-05-11T00:14:28.257Z,7.43
2023-05-11T00:18:45.891Z,7.47
2023-05-11T00:23:03.847Z,7.54
2023-05-11T00:27:21.356Z,7.60
2023-05-11T00:31:40.165Z,7.71
2023-05-11T00:35:57.821Z,7.65
2023-05-11T00:40:15.939Z,7.60
2023-05-11T00:44:33.564Z,7.55
2023-05-11T00:48:51.534Z,7.50
2023-05-11T00:53:09.348Z,7.46
2023-05-11T00:57:27.449Z,7.43
2023-05-11T01:01:45.502Z,7.37
2023-05-11T01:06:16.478Z,7.55
2023-05-11T01:10:49.130Z,7.60
2023-05-11T01:15:12.834Z,7.61
2023-05-11T01:19:49.839Z,7.65
2023-05-11T01:24:39.190Z,7.68
2023-05-11T01:29:11.644Z,7.61
2023-05-11T01:33:34.085Z,7.61
2023-05-11T01:37:57.568Z,7.57
2023-05-11T01:42:16.535Z,7.53
2023-05-11T01:46:34.802Z,7.39
2023-05-11T01:50:54.312Z,7.26
2023-05-11T01:55:13.849Z,7.12
2023-05-11T01:59:33.496Z,7.08
2023-05-11T02:03:52.665Z,6.99
2023-05-11T02:08:12.088Z,6.95
2023-05-11T02:12:31.429Z,6.88
2023-05-11T02:16:50.726Z,6.75
2023-05-11T02:21:12.128Z,6.65
2023-05-11T02:25:31.453Z,6.56
2023-05-11T02:29:49.317Z,6.41
2023-05-11T02:34:19.800Z,6.36
2023-05-11T02:38:39.638Z,6.40
2023-05-11T02:43:11.644Z,6.26
2023-05-11T02:47:33.643Z,6.12
2023-05-11T02:51:55.062Z,6.02
2023-05-11T02:56:13.758Z,5.95
2023-05-11T03:00:31.502Z,5.88
2023-05-11T03:04:49.284Z,5.91
2023-05-11T03:09:09.342Z,5.89
2023-05-11T03:13:29.068Z,5.89
2023-05-11T03:17:46.819Z,6.01
2023-05-11T03:22:05.304Z,6.25
2023-05-11T03:26:24.172Z,6.44
2023-05-11T03:30:45.230Z,6.65
2023-05-11T03:35:03.248Z,6.91
2023-05-11T03:39:23.851Z,7.11
2023-05-11T03:43:42.358Z,7.33
2023-05-11T03:48:00.845Z,7.55
2023-05-11T03:52:20.685Z,7.71
2023-05-11T03:56:40.595Z,7.85
2023-05-11T04:00:58.208Z,7.97
2023-05-11T04:05:16.168Z,8.02
2023-05-11T04:09:33.671Z,7.95
2023-05-11T04:13:51.312Z,7.95
2023-05-11T04:18:08.970Z,7.88
2023-05-11T04:22:26.646Z,7.82
2023-05-11T04:26:44.182Z,7.88
2023-05-11T04:31:02.087Z,8.03
2023-05-11T04:35:19.639Z,8.29
2023-05-11T04:39:37.690Z,8.47
2023-05-11T04:43:55.189Z,8.56
2023-05-11T04:48:13.819Z,8.72
2023-05-11T04:52:31.454Z,8.91
2023-05-11T04:56:49.290Z,9.05
2023-05-11T05:01:06.809Z,9.24
2023-05-11T05:05:24.492Z,9.46
2023-05-11T05:09:44.481Z,9.61
2023-05-11T05:14:02.934Z,9.81
2023-05-11T05:18:20.449Z,9.87
2023-05-11T05:22:38.139Z,10.10
2023-05-11T05:26:56.306Z,10.22
2023-05-11T05:31:13.854Z,10.34
2023-05-11T05:35:31.240Z,10.54
2023-05-11T05:39:48.934Z,10.83
2023-05-11T05:44:06.588Z,11.05
2023-05-11T05:48:24.156Z,11.18
2023-05-11T05:52:42.203Z,11.42
2023-05-11T05:56:59.824Z,11.75
2023-05-11T06:01:17.568Z,11.94
2023-05-11T06:05:35.130Z,12.18
2023-05-11T06:09:52.883Z,12.40
2023-05-11T06:14:10.534Z,12.65
2023-05-11T06:18:28.254Z,12.82
2023-05-11T06:22:45.787Z,13.25
2023-05-11T06:27:04.804Z,13.36
2023-05-11T06:31:23.422Z,13.57
2023-05-11T06:35:41.373Z,13.80
2023-05-11T06:39:59.594Z,14.12
2023-05-11T06:44:17.211Z,14.22
2023-05-11T06:48:34.766Z,14.24
2023-05-11T06:52:52.556Z,14.59
2023-05-11T06:57:10.481Z,14.80
2023-05-11T07:01:29.584Z,14.85
2023-05-11T07:05:47.419Z,15.34
2023-05-11T07:10:06.967Z,15.38
2023-05-11T07:14:24.562Z,15.34
2023-05-11T07:18:42.401Z,15.59
2023-05-11T07:23:00.021Z,15.94
2023-05-11T07:27:17.802Z,16.14
2023-05-11T07:31:36.630Z,16.21
2023-05-11T07:35:55.037Z,16.52
2023-05-11T07:40:12.677Z,16.74
2023-05-11T07:44:30.547Z,16.80
2023-05-11T07:48:48.251Z,16.83
2023-05-11T07:53:06.152Z,17.01
2023-05-11T07:57:23.813Z,17.11
2023-05-11T08:01:41.694Z,17.21
2023-05-11T08:05:59.310Z,17.38
2023-05-11T08:10:17.287Z,17.55
2023-05-11T08:14:34.894Z,17.40
2023-05-11T08:18:52.734Z,17.38
2023-05-11T08:23:11.125Z,17.47
2023-05-11T08:27:30.503Z,17.98
2023-05-11T08:31:49.678Z,18.10
2023-05-11T08:36:07.834Z,18.36
2023-05-11T08:40:27.223Z,18.86
2023-05-11T08:44:45.601Z,19.31
2023-05-11T08:49:03.335Z,19.48
2023-05-11T08:53:21.596Z,19.80
2023-05-11T08:57:39.072Z,20.25
2023-05-11T09:02:03.550Z,20.24
2023-05-11T09:06:27.296Z,21.13
2023-05-11T09:10:45.532Z,20.89
2023-05-11T09:15:03.213Z,21.80
2023-05-11T09:19:21.407Z,21.95
2023-05-11T09:23:43.196Z,21.50
2023-05-11T09:28:01.481Z,22.07
2023-05-11T09:32:19.164Z,22.18
2023-05-11T09:36:37.172Z,22.33
2023-05-11T09:40:56.784Z,22.24
2023-05-11T09:45:14.589Z,22.20
2023-05-11T09:49:33.357Z,22.85
2023-05-11T09:53:51.253Z,23.69
2023-05-11T09:58:10.245Z,23.48
2023-05-11T10:02:31.166Z,24.46
2023-05-11T10:06:57.687Z,23.82
2023-05-11T10:11:15.745Z,24.49
2023-05-11T10:15:33.489Z,24.01
2023-05-11T10:19:55.185Z,24.05
2023-05-11T10:24:17.212Z,24.08
2023-05-11T10:28:38.241Z,25.01
2023-05-11T10:32:57.690Z,26.66
2023-05-11T10:37:16.997Z,25.88
2023-05-11T10:41:52.728Z,25.66
2023-05-11T10:46:40.110Z,26.26
2023-05-11T10:51:36.440Z,25.98
2023-05-11T10:56:21.048Z,26.63
2023-05-11T11:00:56.797Z,26.28
2023-05-11T11:05:18.282Z,26.64
2023-05-11T11:10:00.345Z,28.80
2023-05-11T11:14:22.548Z,28.78
2023-05-11T11:18:40.202Z,29.34
2023-05-11T11:22:58.567Z,27.08
2023-05-11T11:27:16.479Z,29.70
2023-05-11T11:31:35.734Z,30.67
2023-05-11T11:35:53.531Z,29.86
2023-05-11T11:40:15.251Z,31.43
2023-05-11T11:44:35.164Z,32.73
2023-05-11T11:49:06.305Z,33.53
2023-05-11T11:53:40.968Z,30.62
2023-05-11T11:57:59.009Z,23.85
2023-05-11T12:02:16.976Z,31.99
2023-05-11T12:06:40.189Z,32.54
2023-05-11T12:10:58.937Z,30.74
2023-05-11T12:15:30.588Z,29.26
2023-05-11T12:19:48.068Z,30.38
2023-05-11T12:24:06.626Z,34.99
2023-05-11T12:28:24.277Z,38.38
2023-05-11T12:32:42.361Z,37.66
2023-05-11T12:37:01.735Z,36.12
2023-05-11T12:41:24.034Z,29.23
2023-05-11T12:45:41.616Z,33.74
2023-05-11T12:49:59.314Z,36.95
2023-05-11T12:54:29.513Z,32.67
2023-05-11T12:58:47.361Z,33.84
2023-05-11T13:03:04.606Z,31.37
2023-05-11T13:07:28.260Z,34.99
2023-05-11T13:11:46.014Z,40.99
2023-05-11T13:16:05.562Z,38.48
2023-05-11T13:20:27.643Z,39.73
2023-05-11T13:24:45.439Z,38.36
2023-05-11T13:29:10.920Z,31.24
2023-05-11T13:33:29.470Z,32.44
2023-05-11T13:37:47.207Z,36.23
2023-05-11T13:42:04.998Z,39.88
2023-05-11T13:46:22.569Z,40.81
2023-05-11T13:50:40.406Z,27.33
2023-05-11T13:54:57.877Z,35.33
2023-05-11T13:59:15.895Z,39.92
2023-05-11T14:03:33.636Z,40.95
2023-05-11T14:07:51.567Z,42.26
2023-05-11T14:12:09.216Z,40.10
2023-05-11T14:16:27.270Z,38.02
2023-05-11T14:20:44.816Z,38.76
2023-05-11T14:25:02.530Z,38.60
2023-05-11T14:29:20.223Z,39.88
2023-05-11T14:33:40.718Z,38.84
2023-05-11T14:37:58.221Z,41.88
2023-05-11T14:42:16.062Z,40.72
2023-05-11T14:46:33.678Z,38.32
2023-05-11T14:50:51.265Z,39.11
2023-05-11T14:55:09.265Z,38.58
2023-05-11T14:59:27.404Z,37.45
2023-05-11T15:03:45.106Z,39.37
2023-05-11T15:08:02.896Z,35.38
2023-05-11T15:12:21.078Z,39.20
2023-05-11T15:16:38.949Z,38.36
2023-05-11T15:20:56.568Z,36.87
2023-05-11T15:25:14.631Z,39.86
2023-05-11T15:29:32.918Z,38.93
2023-05-11T15:33:50.724Z,39.68
2023-05-11T15:38:08.367Z,38.22
2023-05-11T15:42:26.061Z,37.74
2023-05-11T15:46:43.830Z,36.54
2023-05-11T15:51:01.489Z,39.30
2023-05-11T15:55:19.296Z,34.73
2023-05-11T15:59:38.164Z,36.99
2023-05-11T16:03:56.757Z,36.22
2023-05-11T16:08:14.799Z,32.84
2023-05-11T16:12:32.516Z,33.42
2023-05-11T16:16:50.219Z,33.78
2023-05-11T16:21:08.661Z,34.53
2023-05-11T16:25:26.320Z,34.60
2023-05-11T16:29:44.059Z,33.38
2023-05-11T16:34:01.665Z,32.68
2023-05-11T16:38:22.553Z,32.71
2023-05-11T16:42:40.227Z,32.01
2023-05-11T16:46:58.701Z,29.59
2023-05-11T16:51:15.994Z,29.82
2023-05-11T16:55:33.695Z,29.86
2023-05-11T16:59:51.918Z,28.29
2023-05-11T17:04:10.600Z,27.12
2023-05-11T17:08:28.586Z,28.83
2023-05-11T17:12:47.048Z,27.98
2023-05-11T17:17:07.021Z,27.22
2023-05-11T17:21:24.816Z,25.81
2023-05-11T17:25:44.248Z,26.25
2023-05-11T17:30:02.256Z,24.56
2023-05-11T17:34:21.472Z,23.13
2023-05-11T17:38:40.754Z,21.40
2023-05-11T17:42:58.263Z,19.44
2023-05-11T17:47:16.015Z,17.28
2023-05-11T17:51:33.741Z,16.17
2023-05-11T17:55:53.349Z,15.53
2023-05-11T18:00:11.743Z,15.09
2023-05-11T18:04:30.396Z,14.74
2023-05-11T18:08:48.855Z,14.30
2023-05-11T18:13:07.862Z,14.14
2023-05-11T18:17:25.973Z,13.83
2023-05-11T18:21:43.584Z,13.51
2023-05-11T18:26:01.105Z,13.40
2023-05-11T18:30:19.037Z,13.19
2023-05-11T18:34:39.039Z,13.09
2023-05-11T18:38:57.454Z,13.05
2023-05-11T18:43:15.096Z,12.84
2023-05-11T18:47:36.522Z,12.84
2023-05-11T18:51:54.264Z,12.73
2023-05-11T18:56:12.255Z,12.64
2023-05-11T19:00:29.794Z,12.64
2023-05-11T19:04:48.104Z,12.64
2023-05-11T19:09:06.020Z,12.32
2023-05-11T19:13:23.712Z,12.24
2023-05-11T19:17:41.672Z,12.04
2023-05-11T19:21:59.712Z,11.94
2023-05-11T19:26:17.390Z,11.88
2023-05-11T19:30:35.015Z,11.95
2023-05-11T19:34:52.547Z,11.84
2023-05-11T19:39:10.328Z,11.78
2023-05-11T19:43:27.789Z,11.63
2023-05-11T19:47:45.422Z,11.54
2023-05-11T19:52:03.156Z,11.47
2023-05-11T19:56:21.981Z,11.51
2023-05-11T20:00:41.502Z,11.20
2023-05-11T20:05:00.392Z,11.15
2023-05-11T20:09:18.038Z,10.96
2023-05-11T20:13:35.834Z,10.91
2023-05-11T20:17:53.434Z,10.89
2023-05-11T20:22:11.104Z,10.77
2023-05-11T20:26:28.777Z,10.67
2023-05-11T20:30:46.918Z,10.67
2023-05-11T20:35:05.847Z,10.46
2023-05-11T20:39:23.597Z,10.56
2023-05-11T20:43:40.649Z,10.47
2023-05-11T20:47:58.523Z,10.38
2023-05-11T20:52:17.774Z,10.41
2023-05-11T20:56:35.901Z,10.27
2023-05-11T21:00:53.491Z,10.32
2023-05-11T21:05:12.733Z,10.13
2023-05-11T21:09:48.451Z,10.06
2023-05-11T21:14:06.198Z,9.85
2023-05-11T21:18:23.743Z,9.82
2023-05-11T21:22:41.583Z,9.85
2023-05-11T21:26:59.920Z,9.61
2023-05-11T21:31:17.968Z,9.64
2023-05-11T21:35:35.704Z,9.57
2023-05-11T21:39:53.571Z,9.60
2023-05-11T21:44:11.302Z,9.42
2023-05-11T21:48:29.564Z,9.37
2023-05-11T21:52:47.431Z,9.36
2023-05-11T21:57:05.945Z,9.20
2023-05-11T22:01:23.755Z,9.15
2023-05-11T22:05:41.800Z,9.11
2023-05-11T22:09:59.424Z,9.12
2023-05-11T22:14:17.240Z,9.19
2023-05-11T22:18:34.830Z,9.18
2023-05-11T22:22:52.678Z,9.11
2023-05-11T22:27:15.556Z,9.16
2023-05-11T22:31:33.342Z,9.27
2023-05-11T22:35:51.205Z,9.23
2023-05-11T22:40:10.440Z,9.37
2023-05-11T22:44:28.570Z,9.27
2023-05-11T22:48:46.122Z,9.26
2023-05-11T22:53:03.785Z,9.19
2023-05-11T22:57:22.365Z,9.22
2023-05-11T23:01:40.043Z,9.24
2023-05-11T23:05:58.931Z,9.13
2023-05-11T23:10:17.095Z,9.05
2023-05-11T23:14:35.291Z,9.06
2023-05-11T23:18:52.935Z,9.26
2023-05-11T23:23:10.733Z,9.39
2023-05-11T23:27:28.788Z,9.47
2023-05-11T23:31:46.733Z,9.32
2023-05-11T23:36:04.452Z,9.19
2023-05-11T23:40:22.833Z,9.16
2023-05-11T23:44:40.879Z,9.02
2023-05-11T23:48:58.761Z,8.94
2023-05-11T23:53:16.268Z,8.92
2023-05-11T23:57:37.354Z,8.87
